Time;durP1;ratioP1;P1;durP2;ratioP2;P2;SDS_P1;SDS_P2;PMS_P1;PMS_P2;Temp;Humidity;BMP_temperature;BMP_pressure;BME280_temperature;BME280_humidity;BME280_pressure;Samples;Min_cycle;Max_cycle;Signal;HPM_P1;HPM_P2
2021/09/16 00:00:14;;;;;;;2.65;1.80;;;8.30;86.30;;;;;;5055589;28;20029;-81
2021/09/16 00:02:43;;;;;;;3.10;1.60;;;8.30;86.30;;;;;;5055353;28;20025;-80
2021/09/16 00:05:10;;;;;;;2.72;2.10;;;8.30;86.50;;;;;;5037426;28;20478;-80
2021/09/16 00:07:36;;;;;;;1.58;1.45;;;8.30;86.80;;;;;;5055255;28;20067;-80
2021/09/16 00:10:06;;;;;;;3.08;1.85;;;8.30;86.80;;;;;;5055120;28;20037;-81
2021/09/16 00:12:32;;;;;;;2.80;1.65;;;8.30;86.50;;;;;;5055437;28;20089;-79
2021/09/16 00:14:59;;;;;;;2.20;1.45;;;8.30;86.50;;;;;;5055000;28;20024;-80
2021/09/16 00:17:25;;;;;;;2.70;2.00;;;8.30;86.10;;;;;;5055174;28;20103;-80
2021/09/16 00:19:50;;;;;;;3.38;2.08;;;8.30;86.10;;;;;;5055002;28;20025;-82
2021/09/16 00:22:17;;;;;;;1.95;1.75;;;8.30;86.20;;;;;;5055511;28;20370;-79
2021/09/16 00:24:43;;;;;;;1.70;1.60;;;8.40;86.30;;;;;;5054069;28;20032;-80
2021/09/16 00:27:09;;;;;;;2.25;2.03;;;8.40;86.50;;;;;;5054933;28;20021;-81
2021/09/16 00:29:34;;;;;;;2.22;2.00;;;8.40;86.50;;;;;;5054775;28;20494;-80
2021/09/16 00:32:00;;;;;;;3.03;2.30;;;8.40;86.50;;;;;;5054651;28;20435;-78
2021/09/16 00:34:26;;;;;;;4.38;1.80;;;8.40;86.70;;;;;;5055017;28;20104;-79
2021/09/16 00:36:52;;;;;;;4.28;2.40;;;8.40;86.60;;;;;;5054628;28;20021;-79
2021/09/16 00:39:17;;;;;;;1.88;1.77;;;8.30;86.60;;;;;;5054864;28;20441;-80
2021/09/16 00:41:43;;;;;;;3.85;2.10;;;8.30;86.50;;;;;;5054637;28;20548;-79
2021/09/16 00:44:09;;;;;;;2.85;2.22;;;8.20;86.50;;;;;;5038724;28;20057;-79
2021/09/16 00:46:35;;;;;;;3.22;2.00;;;8.30;86.80;;;;;;5070164;28;20501;-80
2021/09/16 00:49:04;;;;;;;2.30;2.10;;;8.30;86.90;;;;;;5057393;28;20021;-79
2021/09/16 00:51:30;;;;;;;2.13;1.77;;;8.30;87.10;;;;;;5055832;28;20395;-79
2021/09/16 00:53:59;;;;;;;3.58;2.05;;;8.30;87.10;;;;;;5054654;28;20017;-79
2021/09/16 00:56:25;;;;;;;2.22;1.70;;;8.40;87.40;;;;;;5054765;28;20076;-80
2021/09/16 00:58:53;;;;;;;2.38;1.85;;;8.40;87.10;;;;;;5055163;28;20040;-80
2021/09/16 01:01:19;;;;;;;1.95;1.80;;;8.40;86.10;;;;;;5036614;28;20048;-80
2021/09/16 01:03:45;;;;;;;2.42;2.08;;;8.40;85.90;;;;;;5054456;28;20025;-79
2021/09/16 01:06:11;;;;;;;5.50;2.20;;;8.40;85.70;;;;;;5050014;28;20436;-80
2021/09/16 01:08:38;;;;;;;2.72;2.00;;;8.40;85.60;;;;;;5051984;28;20104;-79
2021/09/16 01:11:05;;;;;;;2.75;2.10;;;8.40;85.90;;;;;;5053498;28;20032;-80
2021/09/16 01:13:31;;;;;;;2.63;2.30;;;8.30;85.50;;;;;;5055999;28;20060;-78
2021/09/16 01:15:58;;;;;;;1.67;1.58;;;8.30;85.50;;;;;;5034999;28;20033;-79
2021/09/16 01:18:25;;;;;;;3.13;1.65;;;8.20;85.60;;;;;;5036309;28;20547;-79
2021/09/16 01:20:51;;;;;;;2.47;2.05;;;8.20;85.30;;;;;;5053893;28;20037;-80
2021/09/16 01:23:17;;;;;;;2.83;2.00;;;8.20;85.30;;;;;;5054339;28;20017;-79
2021/09/16 01:25:43;;;;;;;4.75;2.30;;;8.20;85.30;;;;;;5035848;28;20116;-80
2021/09/16 01:28:09;;;;;;;2.25;1.60;;;8.20;85.40;;;;;;5053881;28;20025;-80
2021/09/16 01:30:36;;;;;;;2.85;1.60;;;8.20;85.00;;;;;;5054850;28;20053;-80
2021/09/16 01:33:02;;;;;;;2.10;1.90;;;8.20;85.20;;;;;;5058423;28;20024;-80
2021/09/16 01:35:28;;;;;;;2.88;1.65;;;8.10;85.00;;;;;;5054298;28;20029;-80
2021/09/16 01:37:56;;;;;;;2.42;2.22;;;8.10;85.00;;;;;;5053260;28;20021;-79
2021/09/16 01:40:22;;;;;;;3.28;1.90;;;8.10;85.20;;;;;;5053505;28;20048;-78
2021/09/16 01:42:48;;;;;;;2.83;2.00;;;8.10;85.30;;;;;;5055081;28;20028;-79
2021/09/16 01:45:20;;;;;;;2.80;2.20;;;8.10;85.30;;;;;;5064593;28;20040;-80
2021/09/16 01:47:46;;;;;;;2.03;1.70;;;8.10;85.20;;;;;;5055612;28;20119;-80
2021/09/16 01:50:14;;;;;;;2.50;1.55;;;8.10;85.00;;;;;;5053408;28;20037;-78
2021/09/16 01:52:40;;;;;;;3.47;1.85;;;8.10;84.50;;;;;;5053614;28;20421;-80
2021/09/16 01:55:07;;;;;;;2.83;1.38;;;8.10;84.20;;;;;;5035503;28;20037;-79
2021/09/16 01:57:33;;;;;;;3.60;2.40;;;8.10;84.00;;;;;;5053033;28;20018;-79
2021/09/16 01:59:59;;;;;;;1.83;1.33;;;8.10;84.20;;;;;;5053201;28;20028;-79
2021/09/16 02:02:25;;;;;;;3.13;1.75;;;8.00;84.10;;;;;;5053073;28;20013;-80
2021/09/16 02:04:51;;;;;;;3.00;2.20;;;8.00;84.20;;;;;;5053126;28;20035;-80
2021/09/16 02:07:16;;;;;;;2.03;1.80;;;8.00;84.40;;;;;;5052930;28;20056;-80
2021/09/16 02:09:42;;;;;;;3.83;1.65;;;7.90;84.60;;;;;;5052904;28;20025;-79
2021/09/16 02:12:08;;;;;;;1.70;1.60;;;8.00;84.90;;;;;;5035157;28;20024;-79
2021/09/16 02:14:34;;;;;;;4.55;2.10;;;8.00;85.00;;;;;;5052853;28;20021;-79
2021/09/16 02:17:00;;;;;;;2.80;2.00;;;8.00;85.20;;;;;;5035039;28;20047;-80
2021/09/16 02:19:26;;;;;;;2.00;1.70;;;8.10;85.30;;;;;;5052850;28;20025;-80
2021/09/16 02:21:52;;;;;;;2.58;2.00;;;8.10;85.20;;;;;;5052876;28;20386;-80
2021/09/16 02:24:18;;;;;;;2.13;1.50;;;8.00;85.30;;;;;;5052605;28;20024;-79
2021/09/16 02:26:44;;;;;;;2.28;2.08;;;8.10;85.60;;;;;;5051362;28;20444;-79
2021/09/16 02:29:09;;;;;;;1.88;1.70;;;8.00;85.90;;;;;;5052376;28;20067;-80
2021/09/16 02:31:35;;;;;;;3.17;1.75;;;8.10;86.10;;;;;;5052648;28;20059;-80
2021/09/16 02:34:01;;;;;;;2.28;1.40;;;8.10;86.10;;;;;;5052605;28;20031;-81
2021/09/16 02:36:27;;;;;;;1.90;1.55;;;8.00;86.10;;;;;;5052581;28;20025;-81
2021/09/16 02:38:53;;;;;;;3.63;1.70;;;8.00;86.20;;;;;;5052357;28;20024;-80
2021/09/16 02:41:19;;;;;;;3.85;1.90;;;8.00;86.50;;;;;;5052459;28;20082;-79
2021/09/16 02:43:44;;;;;;;2.60;1.65;;;8.00;86.60;;;;;;5034469;28;20501;-80
2021/09/16 02:46:11;;;;;;;2.22;1.83;;;8.00;86.90;;;;;;5052488;28;20036;-80
2021/09/16 02:48:37;;;;;;;2.53;1.45;;;8.00;87.30;;;;;;5051963;28;20036;-79
2021/09/16 02:51:03;;;;;;;3.67;1.52;;;8.00;87.10;;;;;;5052378;28;20025;-81
2021/09/16 02:53:29;;;;;;;2.08;1.30;;;8.00;87.40;;;;;;5051020;28;20021;-79
2021/09/16 02:55:54;;;;;;;5.50;1.83;;;8.00;87.50;;;;;;5052130;28;20031;-80
2021/09/16 02:58:20;;;;;;;2.53;1.70;;;8.00;87.90;;;;;;5052377;28;20061;-79
2021/09/16 03:00:46;;;;;;;2.17;1.63;;;7.90;88.10;;;;;;5053118;28;20017;-79
2021/09/16 03:03:12;;;;;;;2.50;1.80;;;8.00;88.40;;;;;;5052544;28;20536;-79
2021/09/16 03:05:38;;;;;;;2.63;1.80;;;7.90;88.60;;;;;;5052026;28;20108;-79
2021/09/16 03:08:04;;;;;;;3.90;2.20;;;7.90;89.00;;;;;;5052027;28;20021;-79
2021/09/16 03:10:30;;;;;;;6.35;1.90;;;7.80;89.40;;;;;;5052087;28;20033;-79
2021/09/16 03:12:56;;;;;;;2.58;1.90;;;7.80;89.90;;;;;;5052120;28;20020;-79
2021/09/16 03:15:22;;;;;;;3.10;1.92;;;7.80;90.20;;;;;;5052290;28;20029;-80
2021/09/16 03:17:48;;;;;;;4.75;2.13;;;7.80;90.30;;;;;;5052107;28;20048;-78
2021/09/16 03:20:14;;;;;;;1.85;1.45;;;7.80;90.40;;;;;;5052398;28;20025;-78
2021/09/16 03:22:40;;;;;;;5.75;2.20;;;7.80;90.50;;;;;;5051577;28;20040;-80
2021/09/16 03:25:07;;;;;;;2.58;1.75;;;7.90;90.70;;;;;;5051981;28;20021;-81
2021/09/16 03:27:33;;;;;;;3.30;2.40;;;7.80;90.90;;;;;;5052239;28;20029;-80
2021/09/16 03:29:59;;;;;;;3.67;2.15;;;7.70;91.20;;;;;;5051591;28;20502;-78
2021/09/16 03:32:25;;;;;;;4.90;2.40;;;7.70;91.50;;;;;;5034159;28;20162;-79
2021/09/16 03:34:51;;;;;;;2.95;2.33;;;7.60;91.70;;;;;;5051866;28;20446;-80
2021/09/16 03:37:17;;;;;;;4.72;2.35;;;7.60;92.00;;;;;;5052180;28;20092;-80
2021/09/16 03:39:43;;;;;;;2.72;2.10;;;7.50;92.30;;;;;;5052032;28;20032;-80
2021/09/16 03:42:09;;;;;;;5.57;2.35;;;7.40;92.60;;;;;;5057263;28;20021;-81
2021/09/16 03:44:36;;;;;;;3.22;2.28;;;7.40;92.90;;;;;;5058088;28;20405;-80
2021/09/16 03:47:05;;;;;;;3.20;2.50;;;7.30;93.10;;;;;;5052281;28;20379;-79
2021/09/16 03:49:35;;;;;;;3.80;2.13;;;7.30;93.30;;;;;;5051980;28;20054;-80
2021/09/16 03:52:02;;;;;;;3.00;2.45;;;7.30;93.60;;;;;;5051635;28;20025;-79
2021/09/16 03:54:28;;;;;;;3.67;2.47;;;7.30;93.70;;;;;;5051749;28;20024;-79
2021/09/16 03:56:54;;;;;;;5.27;2.77;;;7.30;93.90;;;;;;5051792;28;20411;-80
2021/09/16 03:59:20;;;;;;;4.03;2.63;;;7.30;94.10;;;;;;5052609;28;20119;-80
2021/09/16 04:01:46;;;;;;;4.90;2.78;;;7.40;94.30;;;;;;5055597;28;20082;-79
2021/09/16 04:04:12;;;;;;;4.80;3.88;;;7.40;94.40;;;;;;5056054;28;20017;-80
2021/09/16 04:06:38;;;;;;;6.15;4.32;;;7.50;94.50;;;;;;5055417;28;20029;-82
2021/09/16 04:09:03;;;;;;;3.55;3.13;;;7.50;94.50;;;;;;5055302;28;20048;-81
2021/09/16 04:11:29;;;;;;;4.03;3.20;;;7.50;94.50;;;;;;5055227;28;20033;-80
2021/09/16 04:13:55;;;;;;;4.03;3.03;;;7.40;94.50;;;;;;5055024;28;20387;-81
2021/09/16 04:16:21;;;;;;;5.30;2.72;;;7.40;95.00;;;;;;5055191;28;20576;-81
2021/09/16 04:18:47;;;;;;;3.53;2.63;;;7.40;94.80;;;;;;5054975;28;20041;-79
2021/09/16 04:21:16;;;;;;;3.08;2.78;;;7.40;95.00;;;;;;5054075;28;20039;-79
2021/09/16 04:23:42;;;;;;;3.78;2.92;;;7.40;95.20;;;;;;5054895;28;20051;-79
2021/09/16 04:26:07;;;;;;;3.38;2.80;;;7.40;95.30;;;;;;5054910;28;20103;-79
2021/09/16 04:28:33;;;;;;;3.30;2.90;;;7.40;95.30;;;;;;5054906;28;20033;-80
2021/09/16 04:30:59;;;;;;;4.88;3.03;;;7.30;95.40;;;;;;5054843;28;20506;-80
2021/09/16 04:33:25;;;;;;;4.32;2.88;;;7.30;95.50;;;;;;5054693;28;20013;-82
2021/09/16 04:35:51;;;;;;;3.58;2.97;;;7.30;95.60;;;;;;5055394;28;20052;-80
2021/09/16 04:38:17;;;;;;;2.90;2.53;;;7.30;95.80;;;;;;5053319;28;20025;-79
2021/09/16 04:40:43;;;;;;;3.83;2.72;;;7.30;96.00;;;;;;5054673;28;20079;-80
2021/09/16 04:43:09;;;;;;;5.15;2.97;;;7.40;96.10;;;;;;5054514;28;20386;-81
2021/09/16 04:45:36;;;;;;;6.38;3.05;;;7.30;96.20;;;;;;5054284;28;20027;-79
2021/09/16 04:48:02;;;;;;;3.45;2.20;;;7.40;96.30;;;;;;5054768;28;20013;-81
2021/09/16 04:50:28;;;;;;;4.70;2.92;;;7.40;96.30;;;;;;5054339;28;20493;-80
2021/09/16 04:52:54;;;;;;;2.88;2.38;;;7.40;96.30;;;;;;5054855;28;20020;-80
2021/09/16 04:55:19;;;;;;;3.25;2.63;;;7.50;96.40;;;;;;5054611;28;20024;-80
2021/09/16 04:57:45;;;;;;;2.83;1.80;;;7.50;96.40;;;;;;5052879;28;20020;-80
2021/09/16 05:00:12;;;;;;;3.50;3.17;;;7.60;96.30;;;;;;5054408;28;20108;-80
2021/09/16 05:02:38;;;;;;;2.80;2.45;;;7.60;96.30;;;;;;5053821;28;20025;-78
2021/09/16 05:05:05;;;;;;;5.43;3.35;;;7.60;96.30;;;;;;5053138;28;20029;-80
2021/09/16 05:07:31;;;;;;;4.43;2.92;;;7.70;96.40;;;;;;5054373;28;20013;-79
2021/09/16 05:09:57;;;;;;;5.35;3.50;;;7.70;96.40;;;;;;5053559;28;20397;-80
2021/09/16 05:12:23;;;;;;;3.97;2.95;;;7.70;96.40;;;;;;5053882;28;20021;-80
2021/09/16 05:14:48;;;;;;;3.65;3.35;;;7.80;96.30;;;;;;5054070;28;20020;-80
2021/09/16 05:17:14;;;;;;;5.00;3.15;;;7.80;96.40;;;;;;5053596;28;20036;-79
2021/09/16 05:19:40;;;;;;;3.88;3.28;;;7.80;96.40;;;;;;5052468;28;20035;-79
2021/09/16 05:22:06;;;;;;;4.15;3.50;;;7.80;96.50;;;;;;5054931;28;20025;-79
2021/09/16 05:24:32;;;;;;;5.95;3.80;;;7.90;96.40;;;;;;5053625;28;20474;-80
2021/09/16 05:26:58;;;;;;;5.70;3.72;;;7.90;96.40;;;;;;5053494;28;20021;-79
2021/09/16 05:29:24;;;;;;;4.45;3.60;;;8.00;96.40;;;;;;5053397;28;20047;-79
2021/09/16 05:31:50;;;;;;;3.92;3.42;;;8.10;96.30;;;;;;5053668;28;20096;-79
2021/09/16 05:34:16;;;;;;;4.93;4.38;;;8.20;96.20;;;;;;5053739;28;20043;-79
2021/09/16 05:36:43;;;;;;;4.45;3.65;;;8.30;96.10;;;;;;5054092;28;20025;-80
2021/09/16 05:39:09;;;;;;;5.22;4.18;;;8.40;96.00;;;;;;5062424;28;20074;-81
2021/09/16 05:41:35;;;;;;;8.63;4.43;;;8.50;95.80;;;;;;5066839;28;20548;-80
2021/09/16 05:44:02;;;;;;;3.30;3.00;;;8.60;95.60;;;;;;5057338;28;20021;-81
2021/09/16 05:46:29;;;;;;;5.43;3.97;;;8.70;95.50;;;;;;5053414;28;20536;-81
2021/09/16 05:48:55;;;;;;;4.95;4.15;;;8.80;95.10;;;;;;5053241;28;20017;-79
2021/09/16 05:51:21;;;;;;;4.47;2.92;;;8.90;94.90;;;;;;5052956;28;20126;-78
2021/09/16 05:53:47;;;;;;;5.72;3.42;;;9.00;94.40;;;;;;5052616;28;20051;-80
2021/09/16 05:56:12;;;;;;;4.70;3.20;;;9.00;94.10;;;;;;5053425;28;20447;-81
2021/09/16 05:58:38;;;;;;;7.03;3.22;;;9.10;94.20;;;;;;5037878;28;20036;-80
2021/09/16 06:01:04;;;;;;;5.65;3.97;;;9.10;93.70;;;;;;5052895;28;20025;-81
2021/09/16 06:03:30;;;;;;;5.18;3.40;;;9.20;93.80;;;;;;5056962;28;20108;-82
2021/09/16 06:05:56;;;;;;;4.03;3.40;;;9.20;93.60;;;;;;5053240;28;20083;-82
2021/09/16 06:08:22;;;;;;;3.80;3.20;;;9.30;93.70;;;;;;5054109;28;20029;-80
2021/09/16 06:10:47;;;;;;;4.18;3.30;;;9.30;93.60;;;;;;5053371;28;20025;-81
2021/09/16 06:13:13;;;;;;;5.32;3.08;;;9.30;93.20;;;;;;5054462;28;20020;-82
2021/09/16 06:15:39;;;;;;;5.80;3.67;;;9.30;93.40;;;;;;5053958;28;20025;-82
2021/09/16 06:18:05;;;;;;;4.63;3.35;;;9.30;93.60;;;;;;5054287;28;20075;-81
2021/09/16 06:20:31;;;;;;;4.82;3.58;;;9.30;93.30;;;;;;5052548;28;20025;-81
2021/09/16 06:22:57;;;;;;;7.47;4.35;;;9.40;93.20;;;;;;5052658;28;20021;-80
2021/09/16 06:25:23;;;;;;;5.30;4.15;;;9.40;93.30;;;;;;5052127;28;20474;-81
2021/09/16 06:27:49;;;;;;;5.45;3.63;;;9.40;93.40;;;;;;5054067;28;20092;-81
2021/09/16 06:30:15;;;;;;;7.40;4.95;;;9.50;93.30;;;;;;5035735;28;20075;-82
2021/09/16 06:32:45;;;;;;;9.27;3.60;;;9.60;93.10;;;;;;5035263;28;20474;-81
2021/09/16 06:35:11;;;;;;;7.47;4.13;;;9.70;92.50;;;;;;5051353;28;20513;-81
2021/09/16 06:37:37;;;;;;;6.47;3.20;;;9.60;92.30;;;;;;5052818;28;20013;-81
2021/09/16 06:40:04;;;;;;;4.47;2.58;;;9.70;92.50;;;;;;5052927;28;20044;-80
2021/09/16 06:42:29;;;;;;;3.60;2.30;;;9.90;91.90;;;;;;5052934;28;20021;-82
2021/09/16 06:44:55;;;;;;;6.18;2.80;;;10.10;91.60;;;;;;5035168;28;20032;-82
2021/09/16 06:47:21;;;;;;;5.40;2.80;;;10.50;91.60;;;;;;5052825;28;20021;-82
2021/09/16 06:49:48;;;;;;;5.10;2.80;;;10.80;90.70;;;;;;5052601;28;20135;-82
2021/09/16 06:52:15;;;;;;;2.80;1.98;;;10.90;89.60;;;;;;5053837;28;20032;-82
2021/09/16 06:54:41;;;;;;;3.92;1.70;;;11.00;88.40;;;;;;5056098;28;20377;-80
2021/09/16 06:57:07;;;;;;;5.30;1.77;;;11.00;88.00;;;;;;5034740;28;20021;-83
2021/09/16 06:59:33;;;;;;;2.65;2.22;;;10.90;86.80;;;;;;5052240;28;20482;-82
2021/09/16 07:01:59;;;;;;;5.50;2.13;;;11.00;87.00;;;;;;5052585;28;20096;-80
2021/09/16 07:04:24;;;;;;;3.45;2.00;;;11.30;86.90;;;;;;5051220;28;20081;-80
2021/09/16 07:06:50;;;;;;;3.92;1.83;;;11.50;85.20;;;;;;5053618;28;20028;-82
2021/09/16 07:09:16;;;;;;;2.10;1.67;;;11.40;84.60;;;;;;5053449;28;20021;-81
2021/09/16 07:11:42;;;;;;;3.15;1.67;;;11.40;84.40;;;;;;5053011;28;20033;-81
2021/09/16 07:14:08;;;;;;;2.83;1.80;;;11.50;84.00;;;;;;5052154;28;20474;-81
2021/09/16 07:16:34;;;;;;;1.95;1.70;;;11.50;82.90;;;;;;5052405;28;20033;-81
2021/09/16 07:18:59;;;;;;;5.68;2.47;;;11.50;83.60;;;;;;5052529;28;20025;-82
2021/09/16 07:21:25;;;;;;;9.95;2.38;;;11.60;82.70;;;;;;5052763;28;20025;-80
2021/09/16 07:23:51;;;;;;;4.35;1.80;;;11.60;82.50;;;;;;5052169;28;20107;-81
2021/09/16 07:26:17;;;;;;;5.80;2.10;;;11.40;82.40;;;;;;5051967;28;20040;-81
2021/09/16 07:28:43;;;;;;;3.17;1.85;;;11.40;83.00;;;;;;5034319;28;20021;-80
2021/09/16 07:31:09;;;;;;;7.50;2.20;;;11.60;82.50;;;;;;5052543;28;20048;-81
2021/09/16 07:33:34;;;;;;;2.30;1.60;;;11.60;82.10;;;;;;5050884;28;20029;-83
2021/09/16 07:36:00;;;;;;;3.58;1.42;;;11.60;81.70;;;;;;5049030;28;20034;-81
2021/09/16 07:38:26;;;;;;;3.30;1.58;;;11.50;80.80;;;;;;5039527;28;20021;-83
2021/09/16 07:40:52;;;;;;;2.47;1.33;;;11.40;81.50;;;;;;5039518;28;20467;-83
2021/09/16 07:43:18;;;;;;;2.72;1.45;;;11.30;81.80;;;;;;5061458;28;20100;-81
2021/09/16 07:45:44;;;;;;;2.22;1.52;;;11.20;81.40;;;;;;5062511;28;20470;-80
2021/09/16 07:48:22;;;;;;;3.20;1.30;;;11.20;81.80;;;;;;5057190;28;20025;-80
2021/09/16 07:50:50;;;;;;;1.20;1.10;;;11.10;81.40;;;;;;5056291;28;20037;-79
2021/09/16 07:53:16;;;;;;;4.38;1.45;;;10.80;82.00;;;;;;5056475;28;20049;-79
2021/09/16 07:55:42;;;;;;;1.48;0.85;;;10.70;82.30;;;;;;5055063;28;20127;-78
2021/09/16 07:58:08;;;;;;;3.17;2.00;;;10.60;82.40;;;;;;5057361;28;20139;-78
2021/09/16 08:00:34;;;;;;;3.60;1.60;;;10.50;83.10;;;;;;5039289;28;20029;-80
2021/09/16 08:03:00;;;;;;;2.28;1.13;;;10.60;82.90;;;;;;5055997;28;20021;-78
2021/09/16 08:05:26;;;;;;;5.53;1.08;;;10.70;82.80;;;;;;5055304;28;20025;-78
2021/09/16 08:07:51;;;;;;;4.28;1.45;;;10.90;82.50;;;;;;5055579;28;20043;-80
2021/09/16 08:10:17;;;;;;;7.75;1.40;;;11.10;82.20;;;;;;5055766;28;20037;-80
2021/09/16 08:12:43;;;;;;;1.63;1.20;;;11.40;81.50;;;;;;5042302;28;20017;-80
2021/09/16 08:15:10;;;;;;;2.50;1.20;;;11.60;80.70;;;;;;5055695;28;20028;-79
2021/09/16 08:17:39;;;;;;;2.85;1.50;;;11.60;79.50;;;;;;5055639;28;20013;-84
2021/09/16 08:20:07;;;;;;;3.53;1.58;;;11.60;78.90;;;;;;5054847;28;20110;-82
2021/09/16 08:22:33;;;;;;;;;;;11.50;79.40;;;;;;5048438;28;20071;-83
2021/09/16 08:25:00;;;;;;;3.38;1.40;;;11.40;79.90;;;;;;5054564;28;19904;-81
2021/09/16 08:27:26;;;;;;;1.90;1.52;;;11.20;80.60;;;;;;5054986;28;20028;-83
2021/09/16 08:29:52;;;;;;;2.20;1.50;;;11.10;81.20;;;;;;5048780;28;20050;-84
2021/09/16 08:32:18;;;;;;;3.92;1.70;;;11.10;80.80;;;;;;5035467;28;20029;-82
2021/09/16 08:34:44;;;;;;;5.00;2.17;;;11.10;80.90;;;;;;5037816;28;20117;-79
2021/09/16 08:37:11;;;;;;;7.07;2.75;;;11.20;81.00;;;;;;5035014;28;20112;-80
2021/09/16 08:39:37;;;;;;;6.85;2.30;;;11.10;81.20;;;;;;5041993;28;20025;-81
2021/09/16 08:42:03;;;;;;;6.70;2.45;;;11.10;81.00;;;;;;5034997;28;20033;-81
2021/09/16 08:44:29;;;;;;;2.40;1.92;;;11.20;80.60;;;;;;5034004;28;20501;-80
2021/09/16 08:46:55;;;;;;;5.05;2.15;;;11.30;80.60;;;;;;5034211;28;20029;-78
2021/09/16 08:49:21;;;;;;;4.18;1.95;;;11.40;80.20;;;;;;5035049;28;20018;-80
2021/09/16 08:51:47;;;;;;;4.63;2.75;;;11.30;80.00;;;;;;5033542;28;20124;-81
2021/09/16 08:54:14;;;;;;;3.55;2.40;;;11.20;80.30;;;;;;5035726;28;20061;-81
2021/09/16 08:56:43;;;;;;;3.17;2.38;;;11.00;80.60;;;;;;5035496;28;20022;-84
2021/09/16 08:59:09;;;;;;;4.07;2.13;;;10.80;81.00;;;;;;5034769;28;20026;-82
2021/09/16 09:01:36;;;;;;;4.15;2.05;;;10.70;81.60;;;;;;5016811;28;20026;-82
2021/09/16 09:04:02;;;;;;;4.90;2.35;;;10.60;82.40;;;;;;5036065;28;20073;-83
2021/09/16 09:06:31;;;;;;;5.68;2.88;;;10.60;82.70;;;;;;5034866;28;20021;-81
2021/09/16 09:09:20;;;;;;;4.25;2.72;;;10.60;83.10;;;;;;5037383;28;20023;-87
2021/09/16 09:11:59;;;;;;;5.60;2.55;;;10.60;83.60;;;;;;5034569;28;20040;-84
2021/09/16 09:14:47;;;;;;;5.28;2.47;;;10.60;83.70;;;;;;5017313;28;20017;-88
2021/09/16 09:17:21;;;;;;;3.92;2.05;;;10.50;83.70;;;;;;5034718;28;20044;-84
2021/09/16 09:19:52;;;;;;;3.78;1.90;;;10.40;84.00;;;;;;5032748;28;20045;-85
2021/09/16 09:22:26;;;;;;;4.63;2.33;;;10.30;83.70;;;;;;5034479;28;20031;-86
2021/09/16 09:25:08;;;;;;;3.88;2.40;;;10.30;83.90;;;;;;5034804;28;20100;-84
2021/09/16 09:27:37;;;;;;;3.03;2.05;;;10.40;84.00;;;;;;5016472;28;20107;-83
2021/09/16 09:30:13;;;;;;;4.05;1.98;;;10.50;82.90;;;;;;5040100;28;20049;-83
2021/09/16 09:32:59;;;;;;;2.72;2.20;;;10.70;82.30;;;;;;5054196;28;20013;-82
2021/09/16 09:35:28;;;;;;;8.87;2.20;;;10.80;81.00;;;;;;5035829;28;20021;-82
2021/09/16 09:37:56;;;;;;;5.40;2.88;;;10.80;81.00;;;;;;5054518;28;20297;-83
2021/09/16 09:40:31;;;;;;;3.90;2.45;;;10.90;81.00;;;;;;5056684;28;20043;-82
2021/09/16 09:43:26;;;;;;;6.13;2.33;;;11.10;79.60;;;;;;5055542;28;20443;-83
2021/09/16 09:46:12;;;;;;;3.70;2.28;;;11.20;78.60;;;;;;5036082;28;20027;-83
2021/09/16 09:48:44;;;;;;;2.30;1.77;;;11.40;78.10;;;;;;5051824;28;20025;-84
2021/09/16 09:51:12;;;;;;;1.40;1.30;;;11.70;75.30;;;;;;5054366;28;20033;-85
2021/09/16 09:53:44;;;;;;;2.80;1.40;;;11.90;73.30;;;;;;5040654;28;20021;-87
2021/09/16 09:56:15;;;;;;;5.85;2.03;;;12.10;71.30;;;;;;5057563;28;20051;-85
2021/09/16 09:58:41;;;;;;;3.85;1.67;;;12.40;71.40;;;;;;5063165;28;20021;-92
2021/09/16 10:01:27;;;;;;;2.83;1.70;;;12.70;70.00;;;;;;5037396;28;20398;-92
2021/09/16 10:03:53;;;;;;;3.05;1.73;;;13.00;68.70;;;;;;5036124;28;20037;-83
2021/09/16 10:06:19;;;;;;;4.78;1.90;;;13.20;68.40;;;;;;5035621;28;20025;-85
2021/09/16 10:09:09;;;;;;;1.67;1.20;;;13.50;67.70;;;;;;5056280;28;20028;-85
2021/09/16 10:11:49;;;;;;;3.65;1.67;;;13.50;67.40;;;;;;5057639;28;20052;-85
2021/09/16 10:14:16;;;;;;;3.55;1.77;;;13.50;66.40;;;;;;5055867;28;20013;-82
2021/09/16 10:16:43;;;;;;;2.75;2.00;;;13.30;65.80;;;;;;5052408;28;20524;-85
2021/09/16 10:19:10;;;;;;;3.03;1.67;;;13.00;66.50;;;;;;5035914;28;20113;-86
2021/09/16 10:21:36;;;;;;;2.67;1.90;;;12.70;67.10;;;;;;5053401;28;20017;-84
2021/09/16 10:24:03;;;;;;;3.50;2.00;;;12.40;67.10;;;;;;5052306;28;20539;-86
2021/09/16 10:26:34;;;;;;;2.88;2.20;;;12.20;68.00;;;;;;5028198;28;20478;-84
2021/09/16 10:29:01;;;;;;;2.45;1.45;;;12.00;69.00;;;;;;5052950;28;20021;-84
2021/09/16 10:31:27;;;;;;;3.78;1.90;;;11.70;69.20;;;;;;5050661;28;20086;-84
2021/09/16 10:33:54;;;;;;;5.25;2.28;;;11.50;70.00;;;;;;5053508;28;20382;-84
2021/09/16 10:36:20;;;;;;;3.70;1.70;;;11.40;70.70;;;;;;5035596;28;20036;-86
2021/09/16 10:38:50;;;;;;;3.50;2.25;;;11.30;71.20;;;;;;5035162;28;20016;-84
2021/09/16 10:41:24;;;;;;;3.47;2.28;;;11.20;71.70;;;;;;5053231;28;20029;-86
2021/09/16 10:44:20;;;;;;;2.33;1.67;;;11.10;71.70;;;;;;5056506;28;20017;-85
2021/09/16 10:46:49;;;;;;;3.03;1.70;;;11.10;71.70;;;;;;5030940;28;20029;-86
2021/09/16 10:49:23;;;;;;;3.38;2.05;;;11.10;71.60;;;;;;5059449;28;20063;-86
2021/09/16 10:51:55;;;;;;;5.32;1.60;;;11.10;71.60;;;;;;5054023;28;20037;-85
2021/09/16 10:54:24;;;;;;;5.50;2.00;;;11.10;71.70;;;;;;5053687;28;20382;-83
2021/09/16 10:57:14;;;;;;;3.72;1.83;;;11.10;72.00;;;;;;5054310;28;20378;-82
2021/09/16 10:59:49;;;;;;;5.70;1.92;;;11.10;72.20;;;;;;5043723;28;20096;-81
2021/09/16 11:02:42;;;;;;;9.07;1.77;;;11.20;72.50;;;;;;5052309;28;20040;-82
2021/09/16 11:05:12;;;;;;;2.97;1.88;;;11.20;71.90;;;;;;5022265;28;20536;-83
2021/09/16 11:07:38;;;;;;;5.28;1.90;;;11.20;72.10;;;;;;5036810;28;20031;-83
2021/09/16 11:10:13;;;;;;;5.32;2.38;;;11.10;72.30;;;;;;5053123;28;20033;-84
2021/09/16 11:12:47;;;;;;;2.97;2.42;;;11.10;73.00;;;;;;5049359;28;20056;-84
2021/09/16 11:15:15;;;;;;;2.67;1.88;;;11.10;73.10;;;;;;5053657;28;20017;-83
2021/09/16 11:17:43;;;;;;;3.08;2.05;;;11.10;72.90;;;;;;5052476;28;20102;-83
2021/09/16 11:20:12;;;;;;;8.35;2.53;;;11.10;73.00;;;;;;5052222;28;20053;-83
2021/09/16 11:22:38;;;;;;;5.80;2.97;;;11.10;73.00;;;;;;5052674;28;20029;-82
2021/09/16 11:25:05;;;;;;;6.93;2.67;;;11.10;72.90;;;;;;5053038;28;20505;-84
2021/09/16 11:27:39;;;;;;;5.65;2.70;;;11.20;72.90;;;;;;5053186;28;20040;-84
2021/09/16 11:30:13;;;;;;;7.22;2.40;;;11.30;72.80;;;;;;5052492;28;20041;-83
2021/09/16 11:32:42;;;;;;;6.55;2.30;;;11.40;72.70;;;;;;5052762;28;20083;-83
2021/09/16 11:35:11;;;;;;;2.95;2.40;;;11.40;72.60;;;;;;5052336;28;20112;-84
2021/09/16 11:37:41;;;;;;;5.65;1.88;;;11.50;72.40;;;;;;5052240;28;20033;-82
2021/09/16 11:40:11;;;;;;;2.80;2.15;;;11.50;71.90;;;;;;5034761;28;20021;-84
2021/09/16 11:42:40;;;;;;;3.30;2.15;;;11.50;71.80;;;;;;5031239;28;20021;-85
2021/09/16 11:45:26;;;;;;;11.88;3.33;;;11.50;72.30;;;;;;5043395;28;20392;-84
2021/09/16 11:48:08;;;;;;;2.80;2.05;;;11.70;72.40;;;;;;5034747;28;20053;-84
2021/09/16 11:50:43;;;;;;;5.10;2.53;;;11.80;71.70;;;;;;5052314;28;20033;-81
2021/09/16 11:53:13;;;;;;;3.28;1.90;;;12.10;71.10;;;;;;5049452;28;20025;-84
2021/09/16 11:55:44;;;;;;;5.28;2.58;;;12.30;69.50;;;;;;5053329;28;20025;-84
2021/09/16 11:58:24;;;;;;;6.10;2.40;;;12.50;68.50;;;;;;5035020;28;20489;-84
2021/09/16 12:00:55;;;;;;;2.13;1.23;;;12.50;67.90;;;;;;5038288;28;20017;-86
2021/09/16 12:03:33;;;;;;;2.72;1.75;;;12.40;65.10;;;;;;5053839;28;20071;-87
2021/09/16 12:06:00;;;;;;;1.85;1.35;;;12.30;65.00;;;;;;5065410;28;20025;-87
2021/09/16 12:08:27;;;;;;;;;;;12.30;64.90;;;;;;5056564;28;20049;-89
2021/09/16 12:10:59;;;;;;;3.92;1.85;;;12.20;65.80;;;;;;5053241;28;19921;-90
2021/09/16 12:13:28;;;;;;;4.50;2.20;;;12.20;65.50;;;;;;5035876;28;20029;-86
2021/09/16 12:16:22;;;;;;;7.20;2.80;;;12.10;66.60;;;;;;5052954;28;20036;-90
2021/09/16 12:18:53;;;;;;;5.90;3.03;;;12.00;67.80;;;;;;5036121;28;20023;-87
2021/09/16 12:21:32;;;;;;;10.60;2.90;;;11.70;68.80;;;;;;5058228;28;20021;-89
2021/09/16 12:24:08;;;;;;;6.80;2.65;;;11.50;69.90;;;;;;5039442;28;20028;-86
2021/09/16 12:26:42;;;;;;;8.60;3.35;;;11.50;70.80;;;;;;5053306;28;20021;-89
2021/09/16 12:29:09;;;;;;;5.85;2.80;;;11.50;71.10;;;;;;5060037;28;20028;-87
2021/09/16 12:31:42;;;;;;;5.65;3.00;;;11.50;71.20;;;;;;5057925;28;20032;-85
2021/09/16 12:34:11;;;;;;;5.78;3.10;;;11.40;71.20;;;;;;5056389;28;20041;-83
2021/09/16 12:36:49;;;;;;;6.55;3.15;;;11.40;71.10;;;;;;5055178;28;20025;-88
2021/09/16 12:39:15;;;;;;;6.90;2.83;;;11.40;71.10;;;;;;5056803;28;20017;-86
2021/09/16 12:41:59;;;;;;;7.97;2.80;;;11.40;71.10;;;;;;5058240;28;20111;-84
2021/09/16 12:44:33;;;;;;;6.13;3.13;;;11.40;71.30;;;;;;5037801;28;20507;-85
2021/09/16 12:47:08;;;;;;;7.00;2.95;;;11.40;71.20;;;;;;5038010;28;20106;-85
2021/09/16 12:49:42;;;;;;;4.30;2.15;;;11.50;71.20;;;;;;5053361;28;20013;-84
2021/09/16 12:52:25;;;;;;;3.20;2.22;;;11.40;70.20;;;;;;5055166;28;20609;-87
2021/09/16 12:55:03;;;;;;;7.50;2.80;;;11.40;70.00;;;;;;5052579;28;20071;-85
2021/09/16 12:57:35;;;;;;;3.50;1.98;;;11.30;70.30;;;;;;5054586;28;20111;-86